Thunder radar more information blitzortung!


Löydät sääaseman tiedot myös:

European Weather Network

Finland Weather Exchange

Weather Underground

AWEKAS



Weather Underground säähistoriasivu

Päivittäin yhteenveto Tou 17, 2017 Yksiköt:  Englantilaiset    Metriset   Molemmat
« Edellinen Päivä
Seuraava Päivä »
Päivittäin Viikoittain Kuukausittain Vuosittain Mukautettu
  Korkea: Matala: Keskiarvo:
Lämpötila: TemperatureC °F 4.5 °F 7.1 °F
Kastepiste: DewpointC °F -1.4 °F 3.4 °F
Kosteus: Humidity % 59 % 77 %
Tuulen nopeus: WindSpeedKMH mph 0.0 mph 3.7 mph
Tuulenpuuska: WindSpeedGustKMH mph - -
Tuuli:- - SSW
Ilmanpaine: PressurehPa in 1017.8 in -
Sade: 2.8 in    
Historical Graphs
 
 
Taulukkotiedot Tou 17, 2017
Aika Lämpötila Kastepiste Ilmanpaine Tuuli Tuulen nopeus Tuulenpuuska Kosteus Sademäärä (tunneittain)
TemperatureC °F DewpointC °F PressurehPa in Calm     Humidity % HourlyPrecipMM in
00:00 6.2 °F -1.2 °F 1026.6 in SSW 4.8 mph 9.7 mph 59 % 0.0 in
00:15 5.8 °F -1.4 °F 1026.6 in SSW 3.2 mph 9.7 mph 60 % 0.0 in
00:30 5.4 °F -1.3 °F 1026.6 in SSW 3.2 mph 11.3 mph 62 % 0.0 in
00:45 5.3 °F -1.2 °F 1026.3 in South 3.2 mph 6.4 mph 63 % 0.0 in
01:00 5.2 °F -1.0 °F 1026.0 in SSW 3.2 mph 11.3 mph 64 % 0.0 in
01:15 5.2 °F -0.8 °F 1026.0 in SSW 3.2 mph 8.0 mph 65 % 0.0 in
01:30 5.2 °F -0.7 °F 1026.0 in SSW 4.8 mph 11.3 mph 66 % 0.0 in
01:45 5.2 °F -0.4 °F 1025.6 in SSW 4.8 mph 12.9 mph 67 % 0.0 in
02:00 5.3 °F -0.2 °F 1025.6 in SSW 4.8 mph 11.3 mph 68 % 0.0 in
02:15 5.3 °F 0.1 °F 1025.3 in SSW 3.2 mph 12.9 mph 69 % 0.0 in
02:30 5.4 °F 0.4 °F 1024.9 in SSW 3.2 mph 9.7 mph 70 % 0.0 in
02:45 5.5 °F 0.7 °F 1024.6 in SSW 4.8 mph 14.5 mph 71 % 0.0 in
03:00 5.7 °F 0.9 °F 1024.6 in SSW 6.4 mph 16.1 mph 71 % 0.0 in
03:15 5.9 °F 1.0 °F 1024.3 in SSW 8.0 mph 16.1 mph 71 % 0.0 in
03:30 6.0 °F 1.1 °F 1024.3 in SSW 6.4 mph 16.1 mph 71 % 0.0 in
03:45 6.1 °F 1.2 °F 1023.9 in SSW 4.8 mph 12.9 mph 71 % 0.0 in
04:00 6.2 °F 1.1 °F 1023.9 in SSW 6.4 mph 12.9 mph 70 % 0.0 in
04:15 6.2 °F 1.2 °F 1023.6 in SSW 6.4 mph 16.1 mph 70 % 0.0 in
04:45 6.3 °F 0.6 °F 1023.2 in SSW 8.0 mph 24.1 mph 67 % 0.0 in
05:00 6.3 °F 0.6 °F 1023.2 in SSW 6.4 mph 14.5 mph 67 % 0.0 in
05:15 6.3 °F 0.6 °F 1023.2 in SSW 8.0 mph 20.9 mph 67 % 0.0 in
05:30 6.3 °F 0.6 °F 1022.9 in SSW 8.0 mph 19.3 mph 67 % 0.0 in
05:45 6.2 °F 0.5 °F 1022.6 in SSW 6.4 mph 16.1 mph 67 % 0.0 in
06:00 6.2 °F 0.5 °F 1022.2 in SSW 6.4 mph 16.1 mph 67 % 0.0 in
06:15 6.3 °F 0.4 °F 1022.2 in SSW 9.7 mph 17.7 mph 66 % 0.0 in
06:30 6.4 °F 0.5 °F 1022.2 in SSW 8.0 mph 16.1 mph 66 % 0.0 in
06:45 6.4 °F 0.7 °F 1021.9 in SSW 9.7 mph 20.9 mph 67 % 0.0 in
07:00 6.3 °F 0.9 °F 1021.9 in SSW 8.0 mph 20.9 mph 68 % 0.0 in
07:15 6.1 °F 1.6 °F 1021.9 in SSW 9.7 mph 27.4 mph 73 % 0.0 in
07:30 5.6 °F 2.1 °F 1021.9 in SSW 6.4 mph 16.1 mph 78 % 0.3 in
07:45 5.2 °F 2.7 °F 1021.6 in SSW 4.8 mph 12.9 mph 84 % 0.5 in
08:00 4.8 °F 2.9 °F 1021.6 in SSW 4.8 mph 17.7 mph 87 % 1.0 in
08:15 4.6 °F 3.0 °F 1021.6 in SSW 6.4 mph 12.9 mph 89 % 1.5 in
08:30 4.5 °F 3.0 °F 1021.6 in SSW 4.8 mph 11.3 mph 90 % 1.5 in
08:45 4.6 °F 3.2 °F 1021.2 in SSW 6.4 mph 17.7 mph 91 % 1.5 in
09:00 4.6 °F 3.3 °F 1021.2 in South 4.8 mph 12.9 mph 91 % 1.0 in
09:15 4.8 °F 3.6 °F 1021.2 in SSW 4.8 mph 14.5 mph 92 % 1.0 in
09:30 4.9 °F 3.7 °F 1020.9 in SSW 4.8 mph 12.9 mph 92 % 0.8 in
09:45 5.1 °F 3.9 °F 1020.9 in SSW 4.8 mph 14.5 mph 92 % 0.8 in
10:00 5.1 °F 3.9 °F 1020.9 in SSW 6.4 mph 11.3 mph 92 % 0.5 in
10:15 5.2 °F 4.0 °F 1020.5 in South 4.8 mph 14.5 mph 92 % 0.3 in
10:30 5.3 °F 4.0 °F 1020.5 in South 4.8 mph 11.3 mph 91 % 0.3 in
10:45 5.5 °F 4.1 °F 1020.2 in South 3.2 mph 11.3 mph 91 % 0.3 in
11:00 5.7 °F 4.2 °F 1020.2 in South 4.8 mph 20.9 mph 90 % 0.3 in
11:15 5.9 °F 4.1 °F 1019.9 in SSW 4.8 mph 11.3 mph 88 % 0.3 in
11:30 6.2 °F 4.2 °F 1019.9 in South 4.8 mph 12.9 mph 87 % 0.3 in
11:45 6.3 °F 4.5 °F 1019.5 in South 3.2 mph 9.7 mph 88 % 0.0 in
12:00 6.7 °F 4.4 °F 1019.5 in South 4.8 mph 17.7 mph 85 % 0.0 in
12:15 6.9 °F 4.6 °F 1019.5 in South 3.2 mph 9.7 mph 85 % 0.0 in
12:30 7.4 °F 4.7 °F 1019.2 in South 4.8 mph 9.7 mph 83 % 0.0 in
12:45 7.9 °F 4.9 °F 1019.2 in South 4.8 mph 11.3 mph 81 % 0.0 in
13:00 8.4 °F 4.6 °F 1019.2 in SSW 3.2 mph 14.5 mph 77 % 0.0 in
13:15 9.0 °F 4.0 °F 1018.8 in South 9.7 mph 20.9 mph 71 % 0.0 in
13:30 9.3 °F 4.1 °F 1018.8 in SSW 11.3 mph 20.9 mph 70 % 0.0 in
13:45 9.6 °F 4.1 °F 1018.5 in SSW 9.7 mph 25.7 mph 69 % 0.0 in
14:00 9.9 °F 4.3 °F 1018.5 in SSW 11.3 mph 22.5 mph 68 % 0.0 in
14:15 10.4 °F 4.3 °F 1018.2 in South 8.0 mph 22.5 mph 66 % 0.0 in
14:30 10.7 °F 4.2 °F 1018.2 in SSW 11.3 mph 24.1 mph 64 % 0.0 in
14:45 11.1 °F 4.6 °F 1018.2 in SSW 9.7 mph 29.0 mph 64 % 0.0 in
15:00 11.3 °F 4.5 °F 1018.2 in Calm     63 % 0.0 in
15:15 11.3 °F 4.5 °F 1018.2 in Calm     63 % 0.0 in
15:30 11.1 °F 4.3 °F 1018.2 in Calm     63 % 0.0 in
15:45 10.9 °F 4.4 °F 1018.5 in Calm     64 % 0.0 in
16:00 10.8 °F 4.9 °F 1018.5 in Calm     67 % 0.0 in
16:15 10.5 °F 4.8 °F 1018.5 in Calm     68 % 0.0 in
16:30 10.2 °F 5.1 °F 1018.5 in Calm     71 % 0.0 in
17:00 9.7 °F 5.1 °F 1018.2 in Calm     73 % 0.0 in
17:15 9.5 °F 5.1 °F 1018.2 in Calm     74 % 0.0 in
17:30 9.4 °F 5.2 °F 1018.5 in Calm     75 % 0.0 in
17:45 9.4 °F 5.2 °F 1018.2 in Calm     75 % 0.0 in
18:00 9.4 °F 5.6 °F 1018.2 in Calm     77 % 0.0 in
18:15 9.2 °F 5.9 °F 1018.2 in Calm     80 % 0.0 in
18:30 8.9 °F 6.0 °F 1018.2 in Calm     82 % 0.0 in
18:45 8.6 °F 6.2 °F 1017.8 in Calm     85 % 0.0 in
19:00 8.5 °F 6.1 °F 1017.8 in Calm     85 % 0.0 in
19:15 8.4 °F 6.2 °F 1017.8 in Calm     86 % 0.0 in
19:30 8.3 °F 6.3 °F 1017.8 in Calm     87 % 0.0 in
19:45 8.2 °F 6.3 °F 1017.8 in Calm     88 % 0.0 in
20:00 8.1 °F 6.2 °F 1018.2 in Calm     88 % 0.0 in
20:15 8.0 °F 6.3 °F 1018.2 in Calm     89 % 0.0 in
20:30 7.9 °F 6.3 °F 1018.2 in Calm     90 % 0.0 in
20:45 7.8 °F 6.3 °F 1018.2 in Calm     90 % 0.0 in
21:00 7.7 °F 6.3 °F 1018.2 in Calm     91 % 0.0 in
21:15 7.7 °F 6.3 °F 1018.2 in Calm     91 % 0.0 in
21:30 7.6 °F 6.4 °F 1018.2 in Calm     92 % 0.0 in
21:45 7.6 °F 6.3 °F 1018.2 in Calm     92 % 0.0 in
22:00 7.6 °F 6.3 °F 1017.8 in Calm     92 % 0.0 in
22:15 7.5 °F 6.3 °F 1017.8 in Calm     92 % 0.0 in
22:30 7.5 °F 6.4 °F 1017.8 in Calm     93 % 0.0 in
22:45 7.5 °F 6.4 °F 1017.8 in Calm     93 % 0.0 in
23:00 7.4 °F 6.4 °F 1017.8 in Calm     93 % 0.0 in
23:15 7.4 °F 6.4 °F 1017.8 in Calm     93 % 0.0 in
23:30 7.3 °F 6.4 °F 1017.8 in Calm     94 % 0.0 in
23:45 7.3 °F 6.4 °F 1017.8 in Calm     94 % 0.0 in
Esan sääasema
Terveisin Weather Underground - 2.75 mb

Alkuperäinen skripti  Jim McMurry - jmcmurry@mwt.net Sovitettu myös templatelle  Wim van der Kuil - Leuven-Template.eu

Laitteet joita käytämme:

Sääasema
Davis VP2

Sääasemaohjelma
Cumulus

Sääaseman tietokone
Asus EeePC

Palveluntarjoaja
Suncomet

Davis VP2

Cumulus

Asus EeePC

Suncomet